createdAt,value
2017-10-13T00:00:10.860Z,12.71
2017-10-13T00:02:46.011Z,12.64
2017-10-13T00:05:20.769Z,12.66
2017-10-13T00:07:55.902Z,12.66
2017-10-13T00:10:30.700Z,12.62
2017-10-13T00:13:05.937Z,12.57
2017-10-13T00:15:40.986Z,12.58
2017-10-13T00:18:15.917Z,12.58
2017-10-13T00:20:50.989Z,12.60
2017-10-13T00:23:25.901Z,12.62
2017-10-13T00:26:01.225Z,12.61
2017-10-13T00:28:35.891Z,12.55
2017-10-13T00:31:10.716Z,12.53
2017-10-13T00:33:46.085Z,12.48
2017-10-13T00:36:20.745Z,12.52
2017-10-13T00:38:55.998Z,12.51
2017-10-13T00:41:31.042Z,12.48
2017-10-13T00:44:05.406Z,12.46
2017-10-13T00:46:40.037Z,12.45
2017-10-13T00:49:14.913Z,12.45
2017-10-13T00:51:50.258Z,12.48
2017-10-13T00:54:24.665Z,12.47
2017-10-13T00:56:59.069Z,12.44
2017-10-13T00:59:33.197Z,12.40
2017-10-13T01:02:07.272Z,12.32
2017-10-13T01:04:42.656Z,12.40
2017-10-13T01:07:17.601Z,12.38
2017-10-13T01:09:52.830Z,12.34
2017-10-13T01:12:27.781Z,12.39
2017-10-13T01:15:02.817Z,12.34
2017-10-13T01:17:37.813Z,12.33
2017-10-13T01:20:12.540Z,12.30
2017-10-13T01:22:47.301Z,12.33
2017-10-13T01:25:22.209Z,12.38
2017-10-13T01:27:57.085Z,12.32
2017-10-13T01:30:31.721Z,12.31
2017-10-13T01:33:06.748Z,12.26
2017-10-13T01:35:41.797Z,12.29
2017-10-13T01:38:17.140Z,12.21
2017-10-13T01:40:52.149Z,12.17
2017-10-13T01:43:27.001Z,12.23
2017-10-13T01:46:01.765Z,12.21
2017-10-13T01:48:36.761Z,12.25
2017-10-13T01:51:11.604Z,12.29
2017-10-13T01:53:46.714Z,12.30
2017-10-13T01:56:21.600Z,12.29
2017-10-13T01:58:56.497Z,12.29
2017-10-13T02:01:31.484Z,12.25
2017-10-13T02:04:06.600Z,12.26
2017-10-13T02:06:40.817Z,12.24
2017-10-13T02:09:15.287Z,12.22
2017-10-13T02:11:50.945Z,12.18
2017-10-13T02:14:25.550Z,12.16
2017-10-13T02:17:00.748Z,12.16
2017-10-13T02:19:35.526Z,12.13
2017-10-13T02:22:10.368Z,12.14
2017-10-13T02:24:45.769Z,12.15
2017-10-13T02:27:20.050Z,12.05
2017-10-13T02:29:55.389Z,12.03
2017-10-13T02:32:30.453Z,11.97
2017-10-13T02:35:05.093Z,11.98
2017-10-13T02:37:40.476Z,11.96
2017-10-13T02:40:15.001Z,12.00
2017-10-13T02:42:49.719Z,11.97
2017-10-13T02:45:24.224Z,11.94
2017-10-13T02:47:59.149Z,11.90
2017-10-13T02:50:34.109Z,11.91
2017-10-13T02:53:09.169Z,11.87
2017-10-13T02:55:44.068Z,11.86
2017-10-13T02:58:19.289Z,11.81
2017-10-13T03:00:54.197Z,11.75
2017-10-13T03:03:28.921Z,11.73
2017-10-13T03:06:03.986Z,11.74
2017-10-13T03:08:39.146Z,11.69
2017-10-13T03:11:13.911Z,11.65
2017-10-13T03:13:48.833Z,11.60
2017-10-13T03:16:23.807Z,11.42
2017-10-13T03:18:58.590Z,11.36
2017-10-13T03:21:33.413Z,11.35
2017-10-13T03:24:07.897Z,11.26
2017-10-13T03:26:43.106Z,11.27
2017-10-13T03:29:18.254Z,11.20
2017-10-13T03:31:53.481Z,11.24
2017-10-13T03:34:28.581Z,11.25
2017-10-13T03:37:03.765Z,11.19
2017-10-13T03:39:38.666Z,11.13
2017-10-13T03:42:13.669Z,11.08
2017-10-13T03:44:48.664Z,11.09
2017-10-13T03:47:24.005Z,11.09
2017-10-13T03:49:58.589Z,11.04
2017-10-13T03:52:33.718Z,11.06
2017-10-13T03:55:08.197Z,11.03
2017-10-13T03:57:43.697Z,11.07
2017-10-13T04:00:18.813Z,11.04
2017-10-13T04:02:53.972Z,11.08
2017-10-13T04:05:28.949Z,11.05
2017-10-13T04:08:03.597Z,11.17
2017-10-13T04:10:38.734Z,11.19
2017-10-13T04:13:13.779Z,11.27
2017-10-13T04:15:48.817Z,11.24
2017-10-13T04:18:23.692Z,11.29
2017-10-13T04:20:59.068Z,11.34
2017-10-13T04:23:33.905Z,11.35
2017-10-13T04:26:09.149Z,11.35
2017-10-13T04:28:44.084Z,11.38
2017-10-13T04:31:19.691Z,11.45
2017-10-13T04:33:54.657Z,11.45
2017-10-13T04:36:29.269Z,11.50
2017-10-13T04:39:03.761Z,11.53
2017-10-13T04:41:38.960Z,11.54
2017-10-13T04:44:13.386Z,11.50
2017-10-13T04:46:49.009Z,11.47
2017-10-13T04:49:24.345Z,11.51
2017-10-13T04:51:59.584Z,11.50
2017-10-13T04:54:34.592Z,11.56
2017-10-13T04:57:09.721Z,11.61
2017-10-13T04:59:44.755Z,11.64
2017-10-13T05:02:19.456Z,11.69
2017-10-13T05:04:54.061Z,11.69
2017-10-13T05:07:29.313Z,11.69
2017-10-13T05:10:04.136Z,11.73
2017-10-13T05:12:38.894Z,11.78
2017-10-13T05:15:13.657Z,11.78
2017-10-13T05:17:48.720Z,11.81
2017-10-13T05:20:23.481Z,11.82
2017-10-13T05:22:58.081Z,11.78
2017-10-13T05:25:32.489Z,11.79
2017-10-13T05:28:07.308Z,11.79
2017-10-13T05:30:42.460Z,11.79
2017-10-13T05:33:17.653Z,11.86
2017-10-13T05:35:52.277Z,11.77
2017-10-13T05:38:27.554Z,11.78
2017-10-13T05:41:02.829Z,11.88
2017-10-13T05:43:37.529Z,11.87
2017-10-13T05:46:12.192Z,11.89
2017-10-13T05:48:46.840Z,11.83
2017-10-13T05:51:21.717Z,11.89
2017-10-13T05:53:56.889Z,11.91
2017-10-13T05:56:31.977Z,11.87
2017-10-13T05:59:06.949Z,11.85
2017-10-13T06:01:41.781Z,11.83
2017-10-13T06:04:16.580Z,11.94
2017-10-13T06:06:51.287Z,11.96
2017-10-13T06:09:26.489Z,11.87
2017-10-13T06:12:00.902Z,11.92
2017-10-13T06:14:35.129Z,11.99
2017-10-13T06:17:09.629Z,12.01
2017-10-13T06:19:44.736Z,11.91
2017-10-13T06:22:19.911Z,12.02
2017-10-13T06:24:54.658Z,12.01
2017-10-13T06:27:29.845Z,12.05
2017-10-13T06:30:05.013Z,12.06
2017-10-13T06:32:39.741Z,12.02
2017-10-13T06:35:14.729Z,12.03
2017-10-13T06:37:49.370Z,12.03
2017-10-13T06:40:23.776Z,12.10
2017-10-13T06:42:58.825Z,12.19
2017-10-13T06:45:33.261Z,12.20
2017-10-13T06:48:08.197Z,12.26
2017-10-13T06:50:43.169Z,12.23
2017-10-13T06:53:17.790Z,12.19
2017-10-13T06:55:52.246Z,12.23
2017-10-13T06:58:26.916Z,12.24
2017-10-13T07:01:01.845Z,12.34
2017-10-13T07:03:36.829Z,12.40
2017-10-13T07:06:12.697Z,12.44
2017-10-13T07:08:47.901Z,12.48
2017-10-13T07:11:22.568Z,12.56
2017-10-13T07:13:56.641Z,12.56
2017-10-13T07:16:31.798Z,12.59
2017-10-13T07:19:06.784Z,12.66
2017-10-13T07:21:41.181Z,12.69
2017-10-13T07:24:15.981Z,12.73
2017-10-13T07:26:50.829Z,12.75
2017-10-13T07:29:25.125Z,12.80
2017-10-13T07:32:00.257Z,12.99
2017-10-13T07:34:35.277Z,13.01
2017-10-13T07:37:09.927Z,13.02
2017-10-13T07:39:44.873Z,13.08
2017-10-13T07:42:20.086Z,13.10
2017-10-13T07:44:55.066Z,13.18
2017-10-13T07:47:29.690Z,13.27
2017-10-13T07:50:04.289Z,13.32
2017-10-13T07:52:39.522Z,13.40
2017-10-13T07:55:14.623Z,13.52
2017-10-13T07:57:49.448Z,13.59
2017-10-13T08:00:24.499Z,13.65
2017-10-13T08:02:59.630Z,13.74
2017-10-13T08:05:34.505Z,13.80
2017-10-13T08:08:09.290Z,13.91
2017-10-13T08:10:44.053Z,13.92
2017-10-13T08:13:19.469Z,13.89
2017-10-13T08:15:53.981Z,13.93
2017-10-13T08:18:29.700Z,13.96
2017-10-13T08:21:04.273Z,14.03
2017-10-13T08:23:38.758Z,14.16
2017-10-13T08:26:13.733Z,14.21
2017-10-13T08:28:48.614Z,14.19
2017-10-13T08:31:22.936Z,14.28
2017-10-13T08:33:58.270Z,14.38
2017-10-13T08:36:33.037Z,14.36
2017-10-13T08:39:08.002Z,14.58
2017-10-13T08:41:43.349Z,14.61
2017-10-13T08:44:18.457Z,14.82
2017-10-13T08:46:53.176Z,14.98
2017-10-13T08:49:28.314Z,15.02
2017-10-13T08:52:03.588Z,15.14
2017-10-13T08:54:38.618Z,15.57
2017-10-13T08:57:13.709Z,15.88
2017-10-13T08:59:48.741Z,16.05
2017-10-13T09:02:23.384Z,16.24
2017-10-13T09:04:58.034Z,16.46
2017-10-13T09:12:42.961Z,16.75
2017-10-13T09:15:17.993Z,16.86
2017-10-13T09:17:53.053Z,16.83
2017-10-13T09:20:27.852Z,16.64
2017-10-13T09:23:07.699Z,16.54
2017-10-13T09:25:43.109Z,16.77
2017-10-13T09:28:17.441Z,17.01
2017-10-13T09:30:52.246Z,17.33
2017-10-13T09:33:27.459Z,17.49
2017-10-13T09:36:01.982Z,17.40
2017-10-13T09:38:38.193Z,17.63
2017-10-13T09:41:13.300Z,17.40
2017-10-13T09:43:48.233Z,17.21
2017-10-13T09:46:23.161Z,17.25
2017-10-13T09:48:57.717Z,17.31
2017-10-13T09:51:32.476Z,17.42
2017-10-13T09:54:07.850Z,17.57
2017-10-13T09:56:43.177Z,17.86
2017-10-13T09:59:18.422Z,18.10
2017-10-13T10:01:53.386Z,18.36
2017-10-13T10:04:28.361Z,18.58
2017-10-13T10:07:02.954Z,18.71
2017-10-13T10:09:37.994Z,18.94
2017-10-13T10:12:12.961Z,19.25
2017-10-13T10:14:48.098Z,19.30
2017-10-13T10:17:23.053Z,19.28
2017-10-13T10:19:57.878Z,19.21
2017-10-13T10:22:32.863Z,19.08
2017-10-13T10:25:08.805Z,18.78
2017-10-13T10:27:43.416Z,18.64
2017-10-13T10:30:18.551Z,18.58
2017-10-13T10:32:53.678Z,18.89
2017-10-13T10:35:27.929Z,18.50
2017-10-13T10:38:02.938Z,18.39
2017-10-13T10:40:38.133Z,18.20
2017-10-13T10:43:13.292Z,18.00
2017-10-13T10:45:48.325Z,17.94
2017-10-13T10:48:23.173Z,17.72
2017-10-13T10:50:57.970Z,17.76
2017-10-13T10:53:32.313Z,17.83
2017-10-13T10:56:07.348Z,17.91
2017-10-13T10:58:42.294Z,18.07
2017-10-13T11:01:17.026Z,18.22
2017-10-13T11:03:51.764Z,18.45
2017-10-13T11:06:26.970Z,18.65
2017-10-13T11:09:02.145Z,18.62
2017-10-13T11:11:36.997Z,18.89
2017-10-13T11:14:11.874Z,19.06
2017-10-13T11:16:47.009Z,19.00
2017-10-13T11:19:21.838Z,18.98
2017-10-13T11:21:56.818Z,19.16
2017-10-13T11:24:31.729Z,18.95
2017-10-13T11:27:06.545Z,18.92
2017-10-13T11:29:41.612Z,19.04
2017-10-13T11:32:16.625Z,18.98
2017-10-13T11:34:51.672Z,18.99
2017-10-13T11:37:26.674Z,18.98
2017-10-13T11:40:01.706Z,18.94
2017-10-13T11:42:36.114Z,18.74
2017-10-13T11:45:11.456Z,18.60
2017-10-13T11:47:46.546Z,18.60
2017-10-13T11:50:21.509Z,18.87
2017-10-13T11:52:56.242Z,19.14
2017-10-13T11:55:30.458Z,19.27
2017-10-13T11:58:05.265Z,19.43
2017-10-13T12:00:39.682Z,19.57
2017-10-13T12:03:14.741Z,19.72
2017-10-13T12:05:49.866Z,19.46
2017-10-13T12:08:24.893Z,19.30
2017-10-13T12:10:59.840Z,19.26
2017-10-13T12:13:34.953Z,19.40
2017-10-13T12:16:10.188Z,19.36
2017-10-13T12:18:45.281Z,19.31
2017-10-13T12:21:20.110Z,19.42
2017-10-13T12:23:55.236Z,19.47
2017-10-13T12:26:30.241Z,19.59
2017-10-13T12:29:05.277Z,19.90
2017-10-13T12:31:40.426Z,19.94
2017-10-13T12:34:15.181Z,20.09
2017-10-13T12:36:49.773Z,20.29
2017-10-13T12:39:24.666Z,20.51
2017-10-13T12:41:59.140Z,20.43
2017-10-13T12:44:34.051Z,20.51
2017-10-13T12:47:08.904Z,20.24
2017-10-13T12:49:44.232Z,20.11
2017-10-13T12:52:19.183Z,20.09
2017-10-13T12:54:53.801Z,20.09
2017-10-13T12:57:28.445Z,20.28
2017-10-13T13:00:03.367Z,20.37
2017-10-13T13:02:38.491Z,20.31
2017-10-13T13:05:13.553Z,20.36
2017-10-13T13:07:48.601Z,20.21
2017-10-13T13:10:23.629Z,20.14
2017-10-13T13:12:58.576Z,20.11
2017-10-13T13:15:32.933Z,20.09
2017-10-13T13:18:07.990Z,20.25
2017-10-13T13:20:43.021Z,20.62
2017-10-13T13:23:18.189Z,20.77
2017-10-13T13:25:52.948Z,20.89
2017-10-13T13:28:28.157Z,21.03
2017-10-13T13:31:03.381Z,20.98
2017-10-13T13:33:38.109Z,20.79
2017-10-13T13:36:13.217Z,20.94
2017-10-13T13:38:48.013Z,20.70
2017-10-13T13:41:22.770Z,20.48
2017-10-13T13:43:57.610Z,20.86
2017-10-13T13:46:32.316Z,21.01
2017-10-13T13:49:07.337Z,21.26
2017-10-13T13:51:42.463Z,21.57
2017-10-13T13:54:17.248Z,21.78
2017-10-13T13:56:52.044Z,21.53
2017-10-13T13:59:27.041Z,21.63
2017-10-13T14:02:02.173Z,21.60
2017-10-13T14:04:36.597Z,21.62
2017-10-13T14:07:11.509Z,21.49
2017-10-13T14:09:46.320Z,21.66
2017-10-13T14:12:21.233Z,21.72
2017-10-13T14:14:56.081Z,21.74
2017-10-13T14:17:31.045Z,22.07
2017-10-13T14:20:05.918Z,22.17
2017-10-13T14:22:40.836Z,22.12
2017-10-13T14:25:15.706Z,22.16
2017-10-13T14:27:50.658Z,22.15
2017-10-13T14:30:25.617Z,22.10
2017-10-13T14:33:00.613Z,21.97
2017-10-13T14:35:35.465Z,21.61
2017-10-13T14:38:10.451Z,21.71
2017-10-13T14:40:45.366Z,21.70
2017-10-13T14:43:23.190Z,21.64
2017-10-13T14:45:57.854Z,21.27
2017-10-13T14:48:32.837Z,20.92
2017-10-13T14:51:07.348Z,20.90
2017-10-13T14:53:42.113Z,20.97
2017-10-13T14:56:17.356Z,20.89
2017-10-13T14:58:52.472Z,20.65
2017-10-13T15:01:27.313Z,20.52
2017-10-13T15:04:02.481Z,20.59
2017-10-13T15:06:37.693Z,20.71
2017-10-13T15:09:12.301Z,20.68
2017-10-13T15:11:46.741Z,20.80
2017-10-13T15:14:21.614Z,20.78
2017-10-13T15:16:56.592Z,20.88
2017-10-13T15:19:31.661Z,20.83
2017-10-13T15:22:07.053Z,20.90
2017-10-13T15:24:47.601Z,20.91
2017-10-13T15:27:27.714Z,20.74
2017-10-13T15:30:08.216Z,20.69
2017-10-13T15:32:48.125Z,20.72
2017-10-13T15:35:28.289Z,20.69
2017-10-13T15:38:08.697Z,20.66
2017-10-13T15:40:48.735Z,20.54
2017-10-13T15:43:29.458Z,20.46
2017-10-13T15:46:09.624Z,20.42
2017-10-13T15:48:44.673Z,20.27
2017-10-13T15:51:24.857Z,20.24
2017-10-13T15:54:00.029Z,20.08
2017-10-13T15:56:34.993Z,20.04
2017-10-13T15:59:09.773Z,19.98
2017-10-13T16:01:44.677Z,20.07
2017-10-13T16:04:19.931Z,19.94
2017-10-13T16:06:54.660Z,19.90
2017-10-13T16:09:29.708Z,19.87
2017-10-13T16:12:04.977Z,19.82
2017-10-13T16:14:40.149Z,19.68
2017-10-13T16:17:15.088Z,19.66
2017-10-13T16:19:50.225Z,19.65
2017-10-13T16:22:25.064Z,19.65
2017-10-13T16:25:00.217Z,19.67
2017-10-13T16:27:35.205Z,19.68
2017-10-13T16:30:10.320Z,19.78
2017-10-13T16:32:45.493Z,19.80
2017-10-13T16:35:20.524Z,19.74
2017-10-13T16:37:55.473Z,19.65
2017-10-13T16:40:30.461Z,19.66
2017-10-13T16:43:05.381Z,19.54
2017-10-13T16:45:40.576Z,19.46
2017-10-13T16:48:15.570Z,19.45
2017-10-13T16:50:50.440Z,19.36
2017-10-13T16:53:25.230Z,19.28
2017-10-13T16:55:59.517Z,19.25
2017-10-13T16:58:34.181Z,19.15
2017-10-13T17:01:09.508Z,19.10
2017-10-13T17:03:44.746Z,19.04
2017-10-13T17:06:18.801Z,19.04
2017-10-13T17:08:53.275Z,19.04
2017-10-13T17:11:27.741Z,18.89
2017-10-13T17:14:02.873Z,18.86
2017-10-13T17:16:37.965Z,18.91
2017-10-13T17:19:12.853Z,18.91
2017-10-13T17:21:47.788Z,18.96
2017-10-13T17:24:22.834Z,18.89
2017-10-13T17:26:58.130Z,18.91
2017-10-13T17:29:33.297Z,18.80
2017-10-13T17:32:08.301Z,18.81
2017-10-13T17:34:43.271Z,18.86
2017-10-13T17:37:18.320Z,18.88
2017-10-13T17:39:53.038Z,18.92
2017-10-13T17:42:27.652Z,18.95
2017-10-13T17:45:02.562Z,18.86
2017-10-13T17:47:37.610Z,18.84
2017-10-13T17:50:12.449Z,18.88
2017-10-13T17:52:47.024Z,18.88
2017-10-13T17:55:22.308Z,18.82
2017-10-13T17:57:57.341Z,18.82
2017-10-13T18:00:32.165Z,18.80
2017-10-13T18:03:06.993Z,18.74
2017-10-13T18:05:42.182Z,18.72
2017-10-13T18:08:16.781Z,18.60
2017-10-13T18:10:51.406Z,18.60
2017-10-13T18:13:26.688Z,18.55
2017-10-13T18:16:01.562Z,18.55
2017-10-13T18:18:36.798Z,18.52
2017-10-13T18:21:11.945Z,18.52
2017-10-13T18:23:47.278Z,18.52
2017-10-13T18:26:22.498Z,18.52
2017-10-13T18:28:57.761Z,18.45
2017-10-13T18:31:32.474Z,18.46
2017-10-13T18:34:06.757Z,18.52
2017-10-13T18:36:41.581Z,18.46
2017-10-13T18:39:16.102Z,18.42
2017-10-13T18:41:50.925Z,18.42
2017-10-13T18:44:26.257Z,18.36
2017-10-13T18:47:01.861Z,18.26
2017-10-13T18:49:36.911Z,18.11
2017-10-13T18:52:11.794Z,18.04
2017-10-13T18:54:46.804Z,17.87
2017-10-13T18:57:21.780Z,17.83
2017-10-13T18:59:56.777Z,17.86
2017-10-13T19:02:31.091Z,17.89
2017-10-13T19:05:06.241Z,17.96
2017-10-13T19:07:41.281Z,17.78
2017-10-13T19:10:16.409Z,17.77
2017-10-13T19:12:51.473Z,17.72
2017-10-13T19:15:26.151Z,17.67
2017-10-13T19:18:01.777Z,17.55
2017-10-13T19:20:36.614Z,17.42
2017-10-13T19:23:11.706Z,17.38
2017-10-13T19:25:46.637Z,17.29
2017-10-13T19:28:22.033Z,17.35
2017-10-13T19:30:56.593Z,17.34
2017-10-13T19:33:31.609Z,17.36
2017-10-13T19:36:08.443Z,17.31
2017-10-13T19:38:43.734Z,17.23
2017-10-13T19:41:18.864Z,17.31
2017-10-13T19:43:54.006Z,17.30
2017-10-13T19:46:29.045Z,17.39
2017-10-13T19:49:03.985Z,17.43
2017-10-13T19:51:39.481Z,17.42
2017-10-13T19:54:14.241Z,17.37
2017-10-13T19:56:49.089Z,17.36
2017-10-13T19:59:24.125Z,17.39
2017-10-13T20:01:58.699Z,17.32
2017-10-13T20:04:33.719Z,17.23
2017-10-13T20:07:08.866Z,17.22
2017-10-13T20:09:43.302Z,17.19
2017-10-13T20:12:17.621Z,17.20
2017-10-13T20:14:52.349Z,17.21
2017-10-13T20:17:27.444Z,17.26
2017-10-13T20:20:02.257Z,17.24
2017-10-13T20:22:37.301Z,17.11
2017-10-13T20:25:11.845Z,17.09
2017-10-13T20:27:46.897Z,17.18
2017-10-13T20:30:21.729Z,17.10
2017-10-13T20:32:57.037Z,16.93
2017-10-13T20:35:32.170Z,16.89
2017-10-13T20:38:07.281Z,16.90
2017-10-13T20:40:42.272Z,16.85
2017-10-13T20:43:16.996Z,16.85
2017-10-13T20:45:51.721Z,17.01
2017-10-13T20:48:26.929Z,17.04
2017-10-13T20:51:01.966Z,17.07
2017-10-13T20:53:37.241Z,17.08
2017-10-13T20:56:12.062Z,17.10
2017-10-13T20:58:47.392Z,17.09
2017-10-13T21:01:22.233Z,16.99
2017-10-13T21:03:57.358Z,16.98
2017-10-13T21:06:32.565Z,17.03
2017-10-13T21:09:07.584Z,17.09
2017-10-13T21:11:42.016Z,16.98
2017-10-13T21:14:17.040Z,17.03
2017-10-13T21:16:51.973Z,17.07
2017-10-13T21:19:27.116Z,17.08
2017-10-13T21:22:01.684Z,17.07
2017-10-13T21:24:36.772Z,17.10
2017-10-13T21:27:11.712Z,17.12
2017-10-13T21:29:47.086Z,17.13
2017-10-13T21:32:22.570Z,17.13
2017-10-13T21:34:57.478Z,17.11
2017-10-13T21:37:32.405Z,17.10
2017-10-13T21:40:07.449Z,17.11
2017-10-13T21:42:42.361Z,17.11
2017-10-13T21:45:17.016Z,17.08
2017-10-13T21:47:51.979Z,17.06
2017-10-13T21:50:26.961Z,17.12
2017-10-13T21:53:02.130Z,17.11
2017-10-13T21:55:37.301Z,17.08
2017-10-13T21:58:12.609Z,17.15
2017-10-13T22:00:47.918Z,17.20
2017-10-13T22:03:23.038Z,17.16
2017-10-13T22:05:58.440Z,17.22
2017-10-13T22:08:33.182Z,17.29
2017-10-13T22:11:07.945Z,17.27
2017-10-13T22:13:42.854Z,17.27
2017-10-13T22:16:17.835Z,17.30
2017-10-13T22:18:52.814Z,17.25
2017-10-13T22:21:27.204Z,17.31
2017-10-13T22:24:02.041Z,17.27
2017-10-13T22:26:36.733Z,17.41
2017-10-13T22:29:12.073Z,17.38
2017-10-13T22:31:47.110Z,17.28
2017-10-13T22:34:21.850Z,17.32
2017-10-13T22:36:57.129Z,17.32
2017-10-13T22:39:32.185Z,17.33
2017-10-13T22:42:06.713Z,17.29
2017-10-13T22:44:41.868Z,17.35
2017-10-13T22:47:16.888Z,17.34
2017-10-13T22:49:52.105Z,17.33
2017-10-13T22:52:28.841Z,17.34
2017-10-13T22:55:03.442Z,17.38
2017-10-13T22:57:37.818Z,17.43
2017-10-13T23:00:12.289Z,17.40
2017-10-13T23:02:47.493Z,17.48
2017-10-13T23:05:22.786Z,17.45
2017-10-13T23:07:57.674Z,17.45
2017-10-13T23:10:32.806Z,17.44
2017-10-13T23:13:08.229Z,17.46
2017-10-13T23:15:43.049Z,17.43
2017-10-13T23:18:18.070Z,17.41
2017-10-13T23:20:53.209Z,17.55
2017-10-13T23:23:27.949Z,17.49
2017-10-13T23:26:02.870Z,17.49
2017-10-13T23:28:38.628Z,17.53
2017-10-13T23:31:13.157Z,17.48
2017-10-13T23:33:48.410Z,17.51
2017-10-13T23:36:23.319Z,17.53
2017-10-13T23:38:58.572Z,17.50
2017-10-13T23:41:34.208Z,17.44
2017-10-13T23:44:09.421Z,17.46
2017-10-13T23:46:44.338Z,17.51
2017-10-13T23:49:19.294Z,17.52
2017-10-13T23:51:54.221Z,17.51
2017-10-13T23:54:29.330Z,17.58
2017-10-13T23:57:04.249Z,17.63
2017-10-13T23:59:38.804Z,17.58
